Norbank — PGIS — position and weather

sailwx.info

Track history (hours):
 
Tides and Currents Weather Stations Pressure Air Temp Water Temp Dewpoint Dewpoint Depression Visibility Wind Speed Wind Dir Waves Ship Positions

Norbank

Operator: P & O Ferries

Last reported at 2016-Jul-23 13:33 UTC. Time now 2016-Jul-23 23:04 UTC.
Position N 53°32' W 004°48'.

Length 167 m; draft 5.6 m.

Type: Ship (hazmat cat A). MMSI: 246213000.

Date/timePositionNaut miles runAvg speedWind from/ knotsBaromVisibWave heightAir tempDewpointWater temp
2016-Jul-23 13:33N 53°32' W 004°48'2718.4
2016-Jul-23 12:05N 53°33' W 004°02'1017.8
2016-Jul-23 11:32N 53°33' W 003°46'1717.5
2016-Jul-23 10:33N 53°32' W 003°17'1110.7
2016-Jul-23 09:33N 53°27' W 003°01'0 0.4
2016-Jul-23 08:28N 53°27' W 003°01'0 0.0
2016-Jul-23 07:31N 53°27' W 003°01'0 0.0
2016-Jul-23 06:33N 53°27' W 003°01'0 0.0
2016-Jul-23 04:29N 53°27' W 003°01'0 0.5
2016-Jul-23 03:33N 53°27' W 003°01'1010.2
2016-Jul-23 02:33N 53°31' W 003°17'1817.9
2016-Jul-23 01:33N 53°32' W 003°47'1717.2
2016-Jul-23 00:33N 53°35' W 004°15'18 1.4
2016-Jul-22 11:19N 53°33' W 003°45'1418.0
2016-Jul-22 10:33N 53°32' W 003°21'1313.4
2016-Jul-22 09:33N 53°27' W 003°01'1 0.5
2016-Jul-22 08:33N 53°27' W 003°01'0 0.0
2016-Jul-22 07:33N 53°27' W 003°01'0 0.0
2016-Jul-22 04:31N 53°27' W 003°01'1 0.6
2016-Jul-22 03:33N 53°27' W 003°01'1413.7
2016-Jul-22 02:33N 53°31' W 003°23'1716.7
2016-Jul-22 01:33N 53°32' W 003°51'2 0.1
2016-Jul-21 11:32N 53°33' W 003°48'1818.0
2016-Jul-21 10:33N 53°32' W 003°18'1111.4
2016-Jul-21 09:33N 53°27' W 003°01'0 0.4
2016-Jul-21 08:28N 53°27' W 003°01'0 0.0
2016-Jul-21 07:31N 53°27' W 003°01'0 0.0
2016-Jul-21 06:31N 53°27' W 003°01'0 0.0
2016-Jul-21 05:27N 53°27' W 003°01'0 0.5
2016-Jul-21 04:33N 53°27' W 003°01'2 2.1
2016-Jul-21 03:33N 53°28' W 003°04'1313.4
2016-Jul-21 02:33N 53°31' W 003°26'1717.2
2016-Jul-21 01:33N 53°32' W 003°55'3 0.2
2016-Jul-20 12:12N 53°34' W 003°52'1421.0
2016-Jul-20 11:33N 53°33' W 003°29'1717.3
2016-Jul-20 10:33N 53°27' W 003°02'1 0.6
2016-Jul-20 09:33N 53°27' W 003°01'0 0.0
2016-Jul-20 08:32N 53°27' W 003°01'0 0.0
2016-Jul-20 07:29N 53°27' W 003°01'0 0.0
2016-Jul-20 06:32N 53°27' W 003°01'0 0.4
2016-Jul-20 05:33N 53°27' W 003°01'1 0.9
2016-Jul-20 04:34N 53°27' W 003°02'5 4.8
2016-Jul-20 03:33N 53°31' W 003°07'9 8.7
2016-Jul-20 02:33N 53°31' W 003°22'1616.4
2016-Jul-20 01:33N 53°32' W 003°50'1616.3
2016-Jul-20 00:33N 53°35' W 004°17'24 2.1
2016-Jul-19 13:09N 53°31' W 004°56'4517.1
2016-Jul-19 10:33N 53°33' W 003°41'1716.9
2016-Jul-19 09:33N 53°31' W 003°13'8 8.0
2016-Jul-19 08:33N 53°27' W 003°01'0 0.3
2016-Jul-19 07:32N 53°27' W 003°01'0 0.0
2016-Jul-19 04:33N 53°27' W 003°01'1 0.5
2016-Jul-19 03:33N 53°27' W 003°01'1111.1
2016-Jul-19 02:33N 53°31' W 003°18'1716.6
2016-Jul-19 01:33N 53°32' W 003°46'1616.5
2016-Jul-19 00:33N 53°33' W 004°14'1817.2
2016-Jul-18 23:31N 53°35' W 004°44'37 1.6
2016-Jul-17 23:33N 53°34' W 003°41'1918.5
2016-Jul-17 22:33N 53°32' W 003°10'7 6.7
2016-Jul-17 21:33N 53°27' W 003°01'0 0.1
2016-Jul-17 20:33N 53°27' W 003°01'0 0.0
2016-Jul-17 19:33N 53°27' W 003°01'0 0.0
2016-Jul-17 18:32N 53°27' W 003°01'0 0.0
2016-Jul-17 17:32N 53°27' W 003°01'0 0.0
2016-Jul-17 16:31N 53°27' W 003°01'0 0.0
2016-Jul-17 15:31N 53°27' W 003°01'0 0.0
2016-Jul-17 14:33N 53°27' W 003°01'0 0.0
2016-Jul-17 13:33N 53°27' W 003°01'0 0.0
2016-Jul-17 12:33N 53°27' W 003°01'0 0.0
2016-Jul-17 11:32N 53°27' W 003°01'0 0.0
2016-Jul-17 10:32N 53°27' W 003°01'0 0.0
2016-Jul-17 09:31N 53°27' W 003°01'0 0.0
2016-Jul-17 08:22N 53°27' W 003°01'0 0.0
2016-Jul-17 07:30N 53°27' W 003°01'0 0.0
2016-Jul-17 06:33N 53°27' W 003°01'0 0.2
2016-Jul-17 04:33N 53°27' W 003°01'4 4.3
2016-Jul-17 03:33N 53°30' W 003°06'1716.7
2016-Jul-17 02:33N 53°31' W 003°34'1817.8
2016-Jul-17 01:33N 53°33' W 004°04'1715.5
2016-Jul-17 00:27N 53°35' W 004°32'28 2.3
2016-Jul-16 12:31N 53°33' W 003°45'2020.8
2016-Jul-16 11:33N 53°32' W 003°12'8 7.8
2016-Jul-16 10:33N 53°27' W 003°01'0 0.4
2016-Jul-16 09:30N 53°27' W 003°01'0 0.0
2016-Jul-16 08:33N 53°27' W 003°01'0 0.0
2016-Jul-16 07:32N 53°27' W 003°01'0 0.0
2016-Jul-16 06:29N 53°27' W 003°01'0 0.0
2016-Jul-16 04:33N 53°27' W 003°01'0 0.5
2016-Jul-16 03:33N 53°27' W 003°02'1211.7
2016-Jul-16 02:33N 53°31' W 003°20'2020.2
2016-Jul-16 01:33N 53°33' W 003°54'4 0.3
2016-Jul-15 12:14N 53°34' W 003°60'1319.3
2016-Jul-15 11:33N 53°33' W 003°38'1918.9
2016-Jul-15 10:33N 53°30' W 003°06'4 4.3
2016-Jul-15 09:34N 53°27' W 003°01'0 0.4
2016-Jul-15 08:31N 53°27' W 003°01'0 0.0
2016-Jul-15 07:28N 53°27' W 003°01'0 0.0
2016-Jul-15 06:33N 53°27' W 003°01'0 0.0
2016-Jul-15 05:33N 53°27' W 003°01'0 0.0
2016-Jul-15 04:33N 53°27' W 003°01'1 0.5
2016-Jul-15 03:33N 53°27' W 003°01'1414.4
2016-Jul-15 02:33N 53°31' W 003°24'1919.0
2016-Jul-15 01:33N 53°33' W 003°56'1716.8
2016-Jul-15 00:31N 53°35' W 004°25'24 1.8
2016-Jul-14 11:10N 53°33' W 003°44'1117.5
2016-Jul-14 10:33N 53°33' W 003°26'1615.9
2016-Jul-14 09:33N 53°27' W 003°01'1 0.6
2016-Jul-14 08:32N 53°27' W 003°01'0 0.0
2016-Jul-14 07:32N 53°27' W 003°01'0 0.0
2016-Jul-14 06:29N 53°27' W 003°01'0 0.0
2016-Jul-14 05:28N 53°27' W 003°01'0 0.0
2016-Jul-14 04:31N 53°27' W 003°01'1 0.6
2016-Jul-14 03:34N 53°27' W 003°02'1515.3
2016-Jul-14 02:33N 53°31' W 003°26'1919.0
2016-Jul-14 01:33N 53°33' W 003°58'  
Track history (hours):
 
Tides and Currents Weather Stations Pressure Air Temp Water Temp Dewpoint Dewpoint Depression Visibility Wind Speed Wind Dir Waves Ship Positions

Norbank

Operator: P & O Ferries

Last reported at 2016-Jul-23 13:33 UTC. Time now 2016-Jul-23 23:04 UTC.
Position N 53°32' W 004°48'.

Length 167 m; draft 5.6 m.

Type: Ship (hazmat cat A). MMSI: 246213000.

Date/timePositionNaut miles runAvg speedWind from/ knotsBaromVisibWave heightAir tempDewpointWater temp
2016-Jul-23 13:33N 53°32' W 004°48'2718.4
2016-Jul-23 12:05N 53°33' W 004°02'1017.8
2016-Jul-23 11:32N 53°33' W 003°46'1717.5
2016-Jul-23 10:33N 53°32' W 003°17'1110.7
2016-Jul-23 09:33N 53°27' W 003°01'0 0.4
2016-Jul-23 08:28N 53°27' W 003°01'0 0.0
2016-Jul-23 07:31N 53°27' W 003°01'0 0.0
2016-Jul-23 06:33N 53°27' W 003°01'0 0.0
2016-Jul-23 04:29N 53°27' W 003°01'0 0.5
2016-Jul-23 03:33N 53°27' W 003°01'1010.2
2016-Jul-23 02:33N 53°31' W 003°17'1817.9
2016-Jul-23 01:33N 53°32' W 003°47'1717.2
2016-Jul-23 00:33N 53°35' W 004°15'18 1.4
2016-Jul-22 11:19N 53°33' W 003°45'1418.0
2016-Jul-22 10:33N 53°32' W 003°21'1313.4
2016-Jul-22 09:33N 53°27' W 003°01'1 0.5
2016-Jul-22 08:33N 53°27' W 003°01'0 0.0
2016-Jul-22 07:33N 53°27' W 003°01'0 0.0
2016-Jul-22 04:31N 53°27' W 003°01'1 0.6
2016-Jul-22 03:33N 53°27' W 003°01'1413.7
2016-Jul-22 02:33N 53°31' W 003°23'1716.7
2016-Jul-22 01:33N 53°32' W 003°51'2 0.1
2016-Jul-21 11:32N 53°33' W 003°48'1818.0
2016-Jul-21 10:33N 53°32' W 003°18'1111.4
2016-Jul-21 09:33N 53°27' W 003°01'0 0.4
2016-Jul-21 08:28N 53°27' W 003°01'0 0.0
2016-Jul-21 07:31N 53°27' W 003°01'0 0.0
2016-Jul-21 06:31N 53°27' W 003°01'0 0.0
2016-Jul-21 05:27N 53°27' W 003°01'0 0.5
2016-Jul-21 04:33N 53°27' W 003°01'2 2.1
2016-Jul-21 03:33N 53°28' W 003°04'1313.4
2016-Jul-21 02:33N 53°31' W 003°26'1717.2
2016-Jul-21 01:33N 53°32' W 003°55'3 0.2
2016-Jul-20 12:12N 53°34' W 003°52'1421.0
2016-Jul-20 11:33N 53°33' W 003°29'1717.3
2016-Jul-20 10:33N 53°27' W 003°02'1 0.6
2016-Jul-20 09:33N 53°27' W 003°01'0 0.0
2016-Jul-20 08:32N 53°27' W 003°01'0 0.0
2016-Jul-20 07:29N 53°27' W 003°01'0 0.0
2016-Jul-20 06:32N 53°27' W 003°01'0 0.4
2016-Jul-20 05:33N 53°27' W 003°01'1 0.9
2016-Jul-20 04:34N 53°27' W 003°02'5 4.8
2016-Jul-20 03:33N 53°31' W 003°07'9 8.7
2016-Jul-20 02:33N 53°31' W 003°22'1616.4
2016-Jul-20 01:33N 53°32' W 003°50'1616.3
2016-Jul-20 00:33N 53°35' W 004°17'24 2.1
2016-Jul-19 13:09N 53°31' W 004°56'4517.1
2016-Jul-19 10:33N 53°33' W 003°41'1716.9
2016-Jul-19 09:33N 53°31' W 003°13'8 8.0
2016-Jul-19 08:33N 53°27' W 003°01'0 0.3
2016-Jul-19 07:32N 53°27' W 003°01'0 0.0
2016-Jul-19 04:33N 53°27' W 003°01'1 0.5
2016-Jul-19 03:33N 53°27' W 003°01'1111.1
2016-Jul-19 02:33N 53°31' W 003°18'1716.6
2016-Jul-19 01:33N 53°32' W 003°46'1616.5
2016-Jul-19 00:33N 53°33' W 004°14'1817.2
2016-Jul-18 23:31N 53°35' W 004°44'37 1.6
2016-Jul-17 23:33N 53°34' W 003°41'1918.5
2016-Jul-17 22:33N 53°32' W 003°10'7 6.7
2016-Jul-17 21:33N 53°27' W 003°01'0 0.1
2016-Jul-17 20:33N 53°27' W 003°01'0 0.0
2016-Jul-17 19:33N 53°27' W 003°01'0 0.0
2016-Jul-17 18:32N 53°27' W 003°01'0 0.0
2016-Jul-17 17:32N 53°27' W 003°01'0 0.0
2016-Jul-17 16:31N 53°27' W 003°01'0 0.0
2016-Jul-17 15:31N 53°27' W 003°01'0 0.0
2016-Jul-17 14:33N 53°27' W 003°01'0 0.0
2016-Jul-17 13:33N 53°27' W 003°01'0 0.0
2016-Jul-17 12:33N 53°27' W 003°01'0 0.0
2016-Jul-17 11:32N 53°27' W 003°01'0 0.0
2016-Jul-17 10:32N 53°27' W 003°01'0 0.0
2016-Jul-17 09:31N 53°27' W 003°01'0 0.0
2016-Jul-17 08:22N 53°27' W 003°01'0 0.0
2016-Jul-17 07:30N 53°27' W 003°01'0 0.0
2016-Jul-17 06:33N 53°27' W 003°01'0 0.2
2016-Jul-17 04:33N 53°27' W 003°01'4 4.3
2016-Jul-17 03:33N 53°30' W 003°06'1716.7
2016-Jul-17 02:33N 53°31' W 003°34'1817.8
2016-Jul-17 01:33N 53°33' W 004°04'1715.5
2016-Jul-17 00:27N 53°35' W 004°32'28 2.3
2016-Jul-16 12:31N 53°33' W 003°45'2020.8
2016-Jul-16 11:33N 53°32' W 003°12'8 7.8
2016-Jul-16 10:33N 53°27' W 003°01'0 0.4
2016-Jul-16 09:30N 53°27' W 003°01'0 0.0
2016-Jul-16 08:33N 53°27' W 003°01'0 0.0
2016-Jul-16 07:32N 53°27' W 003°01'0 0.0
2016-Jul-16 06:29N 53°27' W 003°01'0 0.0
2016-Jul-16 04:33N 53°27' W 003°01'0 0.5
2016-Jul-16 03:33N 53°27' W 003°02'1211.7
2016-Jul-16 02:33N 53°31' W 003°20'2020.2
2016-Jul-16 01:33N 53°33' W 003°54'4 0.3
2016-Jul-15 12:14N 53°34' W 003°60'1319.3
2016-Jul-15 11:33N 53°33' W 003°38'1918.9
2016-Jul-15 10:33N 53°30' W 003°06'4 4.3
2016-Jul-15 09:34N 53°27' W 003°01'0 0.4
2016-Jul-15 08:31N 53°27' W 003°01'0 0.0
2016-Jul-15 07:28N 53°27' W 003°01'0 0.0
2016-Jul-15 06:33N 53°27' W 003°01'0 0.0
2016-Jul-15 05:33N 53°27' W 003°01'0 0.0
2016-Jul-15 04:33N 53°27' W 003°01'1 0.5
2016-Jul-15 03:33N 53°27' W 003°01'1414.4
2016-Jul-15 02:33N 53°31' W 003°24'1919.0
2016-Jul-15 01:33N 53°33' W 003°56'1716.8
2016-Jul-15 00:31N 53°35' W 004°25'24 1.8
2016-Jul-14 11:10N 53°33' W 003°44'1117.5
2016-Jul-14 10:33N 53°33' W 003°26'1615.9
2016-Jul-14 09:33N 53°27' W 003°01'1 0.6
2016-Jul-14 08:32N 53°27' W 003°01'0 0.0
2016-Jul-14 07:32N 53°27' W 003°01'0 0.0
2016-Jul-14 06:29N 53°27' W 003°01'0 0.0
2016-Jul-14 05:28N 53°27' W 003°01'0 0.0
2016-Jul-14 04:31N 53°27' W 003°01'1 0.6
2016-Jul-14 03:34N 53°27' W 003°02'1515.3
2016-Jul-14 02:33N 53°31' W 003°26'1919.0
2016-Jul-14 01:33N 53°33' W 003°58'  

Dump ship's entire track history